Time;durP1;ratioP1;P1;durP2;ratioP2;P2;SDS_P1;SDS_P2;PMS_P1;PMS_P2;Temp;Humidity;BMP_temperature;BMP_pressure;BME280_temperature;BME280_humidity;BME280_pressure;Samples;Min_cycle;Max_cycle;Signal;HPM_P1;HPM_P2
2021/12/21 00:00:12;;;;;;;106.65;20.27;;;;;;;-142.18;100.00;28187.31;5051518;28;20136;-73
2021/12/21 00:02:44;;;;;;;85.35;19.02;;;;;;;-142.18;100.00;28070.84;5088860;28;20903;-73
2021/12/21 00:05:17;;;;;;;99.88;17.10;;;;;;;-142.18;100.00;28725.56;5090282;27;20448;-73
2021/12/21 00:07:46;;;;;;;128.05;20.85;;;;;;;-142.18;100.00;27859.97;5059200;28;20144;-73
2021/12/21 00:10:14;;;;;;;117.70;22.10;;;;;;;-142.18;100.00;28030.66;5049136;28;20110;-72
2021/12/21 00:12:50;;;;;;;86.32;16.08;;;;;;;-142.18;100.00;28801.91;5049191;28;20136;-72
2021/12/21 00:15:24;;;;;;;68.30;14.77;;;;;;;-142.18;100.00;28388.16;5048574;28;20057;-73
2021/12/21 00:18:01;;;;;;;;;;;;;;;-142.18;100.00;27952.34;5049080;28;20111;-73
2021/12/21 00:20:44;;;;;;;77.25;16.50;;;;;;;-142.18;100.00;28566.91;5049944;28;20037;-73
2021/12/21 00:25:41;;;;;;;85.13;17.02;;;;;;;-142.18;100.00;28287.72;5050072;28;20077;-72
2021/12/21 00:28:07;;;;;;;94.22;16.08;;;;;;;-142.18;100.00;28838.03;5048572;28;20062;-73
2021/12/21 00:30:34;;;;;;;103.88;19.10;;;;;;;-142.18;100.00;28255.59;5049509;28;20133;-72
2021/12/21 00:33:01;;;;;;;56.97;14.45;;;;;;;-142.18;100.00;28842.06;5048283;28;20154;-73
2021/12/21 00:35:28;;;;;;;53.95;15.13;;;;;;;-142.18;100.00;29077.09;5048314;28;20821;-73
2021/12/21 00:37:57;;;;;;;62.17;15.98;;;;;;;-142.18;100.00;28826.00;5046762;28;20117;-73
2021/12/21 00:40:23;;;;;;;41.50;15.65;;;;;;;-142.18;100.00;28737.63;5047511;28;20820;-73
2021/12/21 00:43:15;;;;;;;41.85;13.00;;;;;;;-142.18;100.00;29125.28;5046755;28;20076;-73
2021/12/21 00:45:43;;;;;;;67.53;16.08;;;;;;;-142.18;100.00;29267.91;5069846;28;20077;-73
2021/12/21 00:48:10;;;;;;;53.90;14.48;;;;;;;-142.18;100.00;28785.81;5069939;28;20569;-73
2021/12/21 00:50:39;;;;;;;41.88;13.02;;;;;;;-142.18;100.00;29665.69;5052134;28;20087;-73
2021/12/21 00:53:07;;;;;;;110.72;16.10;;;;;;;-142.18;100.00;29535.09;5052648;27;20770;-73
2021/12/21 00:55:34;;;;;;;31.25;13.35;;;;;;;-142.18;100.00;28757.69;5053162;28;20156;-73
2021/12/21 00:58:01;;;;;;;33.20;11.80;;;;;;;-142.18;100.00;29416.56;5070735;28;20144;-73
2021/12/21 01:00:28;;;;;;;30.00;12.25;;;;;;;-142.18;100.00;29376.41;5070194;28;20126;-72
2021/12/21 01:03:05;;;;;;;26.30;11.50;;;;;;;-142.18;100.00;29537.09;5069913;28;20160;-73
2021/12/21 01:05:42;;;;;;;30.38;11.15;;;;;;;-142.18;100.00;29488.88;5052234;27;20061;-73
2021/12/21 01:08:13;;;;;;;29.08;11.70;;;;;;;-142.18;100.00;29418.59;5052747;27;20105;-73
2021/12/21 01:13:38;;;;;;;31.80;13.43;;;;;;;-142.18;100.00;29083.09;5069101;28;20150;-72
2021/12/21 01:21:31;;;;;;;27.95;12.60;;;;;;;-142.18;100.00;28510.66;5068744;28;20085;-73
2021/12/21 01:26:41;;;;;;;20.70;11.13;;;;;;;-142.18;100.00;29625.50;5068864;28;20511;-73
2021/12/21 01:29:24;;;;;;;38.95;11.70;;;;;;;-142.18;100.00;30133.81;5069855;28;20408;-73
2021/12/21 01:34:52;;;;;;;42.47;12.65;;;;;;;-142.18;100.00;30071.53;5050024;28;20415;-73
2021/12/21 01:37:29;;;;;;;35.88;12.40;;;;;;;-142.18;100.00;29886.69;5072293;28;20067;-72
2021/12/21 01:40:04;;;;;;;53.58;13.98;;;;;;;-142.18;100.00;29953.00;5072274;28;20056;-73
2021/12/21 01:43:06;;;;;;;30.58;11.98;;;;;;;-142.18;100.00;29800.28;5050899;27;20097;-73
2021/12/21 01:51:08;;;;;;;44.97;11.45;;;;;;;-142.18;100.00;29774.16;5052604;28;20068;-73
2021/12/21 01:53:35;;;;;;;55.72;12.18;;;;;;;-142.18;100.00;29713.91;5070263;28;20211;-73
2021/12/21 01:56:05;;;;;;;59.53;12.65;;;;;;;-142.18;100.00;29878.66;5071018;28;20061;-73
2021/12/21 01:58:33;;;;;;;41.70;12.13;;;;;;;-142.18;100.00;29766.13;5068448;27;20186;-73
2021/12/21 02:01:01;;;;;;;59.45;13.20;;;;;;;-142.18;100.00;30015.28;5071298;28;20056;-73
2021/12/21 02:03:29;;;;;;;47.58;12.38;;;;;;;-142.18;100.00;29629.53;5141325;27;20801;-73
2021/12/21 02:05:56;;;;;;;49.80;12.10;;;;;;;-142.18;100.00;29810.34;5140629;27;20053;-73
2021/12/21 02:08:24;;;;;;;56.50;12.40;;;;;;;-142.18;100.00;29882.66;5071426;28;20060;-73
2021/12/21 02:10:51;;;;;;;50.35;13.30;;;;;;;-142.18;100.00;29561.22;5071211;28;20079;-72
2021/12/21 02:13:18;;;;;;;71.00;14.68;;;;;;;-142.18;100.00;29408.53;5071436;27;20446;-72
2021/12/21 02:15:45;;;;;;;38.25;12.05;;;;;;;-142.18;100.00;29352.28;5141430;27;20071;-72
2021/12/21 02:20:45;;;;;;;47.45;14.10;;;;;;;-142.18;100.00;29330.19;5070238;28;20053;-72
2021/12/21 02:23:26;;;;;;;41.30;13.63;;;;;;;-142.18;100.00;29163.47;5119504;27;20161;-73
2021/12/21 02:31:07;;;;;;;45.92;16.20;;;;;;;-142.18;100.00;29101.19;5051750;28;20072;-72
2021/12/21 02:33:35;;;;;;;45.20;12.75;;;;;;;-142.18;100.00;29585.31;5051826;28;20069;-72
2021/12/21 02:36:03;;;;;;;60.60;12.68;;;;;;;-142.18;100.00;30103.69;5051368;28;20476;-72
2021/12/21 02:38:32;;;;;;;49.08;12.75;;;;;;;-142.18;100.00;29681.75;5051583;28;20071;-72
2021/12/21 02:40:59;;;;;;;42.85;12.10;;;;;;;-142.18;100.00;29390.47;5051660;28;20065;-73
2021/12/21 02:43:28;;;;;;;43.00;13.10;;;;;;;-142.18;100.00;29583.31;5051196;28;20140;-73
2021/12/21 02:45:55;;;;;;;53.03;11.85;;;;;;;-142.18;100.00;29810.34;5050935;28;20050;-73
2021/12/21 02:48:23;;;;;;;33.65;12.13;;;;;;;-142.18;100.00;29826.41;5050560;28;20733;-72
2021/12/21 02:50:50;;;;;;;43.10;12.57;;;;;;;-142.18;100.00;29498.94;5050689;28;20100;-72
2021/12/21 02:53:18;;;;;;;64.55;13.48;;;;;;;-142.18;100.00;29476.84;5050761;28;20399;-72
2021/12/21 02:55:45;;;;;;;75.63;14.32;;;;;;;-142.18;100.00;29541.13;5118574;27;20136;-73
2021/12/21 02:58:12;;;;;;;63.30;12.95;;;;;;;-142.18;100.00;30135.81;5051431;28;20065;-73
2021/12/21 03:00:39;;;;;;;95.82;17.67;;;;;;;-142.18;100.00;29426.63;5120091;27;20453;-73
2021/12/21 03:03:13;;;;;;;53.60;12.15;;;;;;;-142.18;100.00;30019.28;5051890;28;20065;-73
2021/12/21 03:05:48;;;;;;;55.38;13.90;;;;;;;-142.18;100.00;29281.97;5120053;27;20054;-73
2021/12/21 03:16:22;;;;;;;83.47;16.25;;;;;;;-142.18;100.00;29824.41;5051794;28;20076;-73
2021/12/21 03:18:48;;;;;;;78.25;14.70;;;;;;;-142.18;100.00;30155.91;5051196;27;20065;-73
2021/12/21 03:21:16;;;;;;;34.38;12.43;;;;;;;-142.18;100.00;29549.16;5052037;28;20108;-73
2021/12/21 03:23:43;;;;;;;41.42;12.45;;;;;;;-142.18;100.00;30272.47;5051114;28;20057;-72
2021/12/21 03:26:11;;;;;;;35.45;12.13;;;;;;;-142.18;100.00;29810.34;5120711;27;20058;-72
2021/12/21 03:28:39;;;;;;;40.90;12.82;;;;;;;-142.18;100.00;29655.63;5052509;27;20061;-72
2021/12/21 03:31:10;;;;;;;75.80;14.00;;;;;;;-142.18;100.00;30139.84;5052380;28;20056;-73
2021/12/21 03:33:38;;;;;;;30.67;10.88;;;;;;;-142.18;100.00;30690.44;5052317;28;20339;-73
2021/12/21 03:36:06;;;;;;;32.05;13.35;;;;;;;-142.18;100.00;30417.13;5051458;28;20071;-73
2021/12/21 03:38:34;;;;;;;29.65;11.50;;;;;;;-142.18;100.00;30694.44;5051092;27;20064;-73
2021/12/21 03:41:08;;;;;;;65.13;13.05;;;;;;;-142.18;100.00;30802.97;5050779;28;20061;-73
2021/12/21 03:43:35;;;;;;;31.73;11.85;;;;;;;-142.18;100.00;30537.69;5050488;27;20072;-73
2021/12/21 03:46:14;;;;;;;51.25;12.60;;;;;;;-142.18;100.00;30537.69;5050153;28;20061;-72
2021/12/21 03:48:46;;;;;;;44.35;16.33;;;;;;;-142.18;100.00;30384.97;5049786;28;20447;-72
2021/12/21 03:51:17;;;;;;;38.17;14.43;;;;;;;-142.18;100.00;29758.09;5049820;27;20061;-73
2021/12/21 03:53:46;;;;;;;42.17;13.38;;;;;;;-142.18;100.00;29858.56;5050055;28;20053;-72
2021/12/21 03:59:18;;;;;;;;;;;;;;;-142.18;100.00;30079.56;5091069;28;20056;-74
2021/12/21 04:01:45;;;;;;;32.17;13.27;;;;;;;-142.18;100.00;31011.97;5058883;27;20710;-73
2021/12/21 04:04:17;;;;;;;39.45;12.63;;;;;;;-142.18;100.00;31271.22;5120172;27;20068;-74
2021/12/21 04:07:01;;;;;;;27.33;12.45;;;;;;;-142.18;100.00;30674.34;5072071;27;20121;-73
2021/12/21 04:09:28;;;;;;;31.65;11.90;;;;;;;-142.18;100.00;30481.44;5071778;28;20060;-73
2021/12/21 04:11:55;;;;;;;31.85;12.23;;;;;;;-142.18;100.00;30433.22;5071568;28;20068;-73
2021/12/21 04:14:23;;;;;;;32.63;12.82;;;;;;;-142.18;100.00;30270.44;5070969;28;20151;-73
2021/12/21 04:16:52;;;;;;;26.00;12.55;;;;;;;-142.18;100.00;30099.66;5070082;28;20061;-73
2021/12/21 04:19:21;;;;;;;35.67;13.63;;;;;;;-142.18;100.00;30445.28;5140342;27;20057;-73
2021/12/21 04:21:49;;;;;;;25.85;12.57;;;;;;;-142.18;100.00;30358.88;5070527;28;20067;-74
2021/12/21 04:24:16;;;;;;;33.17;13.63;;;;;;;-142.18;100.00;30272.47;5070731;28;20100;-73
2021/12/21 04:26:43;;;;;;;65.78;15.65;;;;;;;-142.18;100.00;30537.69;5071402;28;20072;-73
2021/12/21 04:29:10;;;;;;;30.42;12.70;;;;;;;-142.18;100.00;30541.72;5070931;28;20453;-73
2021/12/21 04:31:37;;;;;;;35.40;12.88;;;;;;;-142.18;100.00;30565.84;5054018;28;20071;-74
2021/12/21 04:34:03;;;;;;;36.42;12.07;;;;;;;-142.18;100.00;30770.81;5050269;28;20058;-73
2021/12/21 04:36:32;;;;;;;29.52;11.30;;;;;;;-142.18;100.00;30589.94;5119233;27;20065;-73
2021/12/21 04:39:01;;;;;;;33.20;13.02;;;;;;;-142.18;100.00;30411.09;5118561;27;20077;-73
2021/12/21 04:41:29;;;;;;;43.70;14.30;;;;;;;-142.18;100.00;29942.94;5119155;27;20057;-73
2021/12/21 04:43:59;;;;;;;50.25;13.02;;;;;;;-142.18;100.00;30409.09;5050688;27;20061;-73
2021/12/21 04:46:27;;;;;;;33.88;13.32;;;;;;;-142.18;100.00;29378.41;5119961;27;20072;-73
2021/12/21 04:48:55;;;;;;;33.10;11.32;;;;;;;-142.18;100.00;30342.78;5051514;28;20405;-74
2021/12/21 04:51:23;;;;;;;39.72;11.65;;;;;;;-142.18;100.00;30517.59;5051049;28;20138;-74
2021/12/21 04:53:50;;;;;;;35.90;12.50;;;;;;;-142.18;100.00;30515.59;5050995;27;20390;-73
2021/12/21 04:56:17;;;;;;;36.85;12.57;;;;;;;-142.18;100.00;30403.06;5118572;27;20061;-73
2021/12/21 04:58:44;;;;;;;37.35;14.38;;;;;;;-142.18;100.00;30368.91;5049978;28;20140;-74
2021/12/21 05:01:11;;;;;;;48.35;13.70;;;;;;;-142.18;100.00;30300.59;5049457;27;20149;-74
2021/12/21 05:03:39;;;;;;;37.25;13.27;;;;;;;-142.18;100.00;30732.63;5048242;28;20586;-74
2021/12/21 05:06:08;;;;;;;49.72;15.57;;;;;;;-142.18;100.00;29934.91;5051751;28;20071;-73
2021/12/21 05:08:38;;;;;;;38.40;13.55;;;;;;;-142.18;100.00;30196.09;5051593;27;20062;-73
2021/12/21 05:11:07;;;;;;;76.55;15.05;;;;;;;-142.18;100.00;31050.16;5120312;27;20069;-73
2021/12/21 05:13:37;;;;;;;59.63;13.35;;;;;;;-142.18;100.00;31421.97;5051406;28;20057;-73
2021/12/21 05:16:06;;;;;;;74.47;13.57;;;;;;;-142.18;100.00;31271.22;5052389;28;20062;-73
2021/12/21 05:18:34;;;;;;;95.35;16.33;;;;;;;-142.18;100.00;31172.75;5122005;27;20068;-73
2021/12/21 05:21:03;;;;;;;28.90;10.38;;;;;;;-142.18;100.00;31176.78;5052847;28;20068;-74
2021/12/21 05:23:31;;;;;;;31.23;11.98;;;;;;;-142.18;100.00;31110.44;5155687;27;20163;-73
2021/12/21 05:25:59;;;;;;;31.55;10.98;;;;;;;-142.18;100.00;30907.47;5053110;28;20478;-73
2021/12/21 05:28:25;;;;;;;18.50;10.85;;;;;;;-142.18;100.00;30521.63;5052275;28;20061;-73
2021/12/21 05:30:53;;;;;;;30.77;13.00;;;;;;;-142.18;100.00;31170.75;5121020;27;20066;-73
2021/12/21 05:33:20;;;;;;;24.45;10.40;;;;;;;-142.18;100.00;31407.91;5052318;27;20072;-73
2021/12/21 05:35:48;;;;;;;23.63;11.20;;;;;;;-142.18;100.00;31956.66;5052902;28;20057;-73
2021/12/21 05:38:19;;;;;;;26.65;11.18;;;;;;;-142.18;100.00;31689.31;5121188;27;20088;-73
2021/12/21 05:40:47;;;;;;;45.95;12.65;;;;;;;-142.18;100.00;31707.41;5051850;28;20917;-73
2021/12/21 05:43:15;;;;;;;25.65;11.70;;;;;;;-142.18;100.00;31500.38;5051626;28;20061;-74
2021/12/21 05:45:41;;;;;;;34.22;12.43;;;;;;;-142.18;100.00;31542.56;5051720;28;20057;-73
2021/12/21 05:48:08;;;;;;;26.10;12.90;;;;;;;-142.18;100.00;30971.78;5120422;27;20205;-73
2021/12/21 05:50:36;;;;;;;21.15;10.88;;;;;;;-142.18;100.00;31024.03;5051548;28;20056;-73
2021/12/21 05:53:04;;;;;;;28.67;12.40;;;;;;;-142.18;100.00;31273.25;5119444;27;20070;-73
2021/12/21 05:55:32;;;;;;;26.15;11.68;;;;;;;-142.18;100.00;31212.94;5051103;27;20057;-73
2021/12/21 05:57:59;;;;;;;25.33;12.05;;;;;;;-142.18;100.00;30802.97;5050151;27;20132;-73
2021/12/21 06:00:30;;;;;;;22.27;11.88;;;;;;;-142.18;100.00;31273.25;5051033;28;20071;-74
2021/12/21 06:02:58;;;;;;;20.45;11.38;;;;;;;-142.18;100.00;31289.31;5119820;27;20066;-74
2021/12/21 06:05:26;;;;;;;21.77;10.88;;;;;;;-142.18;100.00;31144.63;5050792;28;20058;-74
2021/12/21 06:07:55;;;;;;;23.80;11.65;;;;;;;-142.18;100.00;31361.69;5119380;27;20079;-73
2021/12/21 06:10:33;;;;;;;24.35;11.18;;;;;;;-142.18;100.00;31349.63;5050907;28;20053;-73
2021/12/21 06:26:44;;;;;;;30.38;13.10;;;;;;;-142.18;100.00;31848.09;5051864;28;20780;-74
2021/12/21 06:29:15;;;;;;;30.85;13.50;;;;;;;-142.18;100.00;31880.28;5051967;28;20092;-73
2021/12/21 06:31:45;;;;;;;52.92;12.60;;;;;;;-142.18;100.00;32073.25;5050922;28;20126;-73
2021/12/21 06:34:17;;;;;;;35.13;12.55;;;;;;;-142.18;100.00;31659.16;5050450;28;20057;-73
2021/12/21 06:36:46;;;;;;;76.40;14.75;;;;;;;-142.18;100.00;31586.78;5160849;27;20845;-73
2021/12/21 06:39:18;;;;;;;36.70;13.23;;;;;;;-142.18;100.00;31462.19;5136252;27;20121;-73
2021/12/21 06:41:46;;;;;;;33.90;15.57;;;;;;;-142.18;100.00;31430.00;5071117;27;20370;-73
2021/12/21 06:44:16;;;;;;;24.65;11.65;;;;;;;-142.18;100.00;31669.22;5071001;28;20454;-73
2021/12/21 06:47:04;;;;;;;28.25;12.38;;;;;;;-142.18;100.00;31204.91;5070411;28;20057;-73
2021/12/21 06:52:19;;;;;;;33.38;14.45;;;;;;;-142.18;100.00;31134.56;5060217;28;20057;-73
2021/12/21 06:54:46;;;;;;;35.05;15.80;;;;;;;-142.18;100.00;31295.34;5139049;27;20148;-73
2021/12/21 06:57:14;;;;;;;34.67;15.60;;;;;;;-142.18;100.00;31122.50;5070007;27;20193;-74
2021/12/21 06:59:43;;;;;;;44.75;19.52;;;;;;;-142.18;100.00;31627.00;5153813;27;20582;-73
2021/12/21 07:02:11;;;;;;;39.70;15.98;;;;;;;-142.18;100.00;31665.19;5154866;27;20062;-73
2021/12/21 07:04:40;;;;;;;52.13;19.73;;;;;;;-142.18;100.00;31462.19;5144109;27;20063;-74
2021/12/21 07:07:11;;;;;;;34.78;16.35;;;;;;;-142.18;100.00;31245.09;5134586;27;20811;-73
2021/12/21 07:09:44;;;;;;;38.97;17.58;;;;;;;-142.18;100.00;30927.56;5147266;27;20070;-74
2021/12/21 07:20:23;;;;;;;37.22;18.02;;;;;;;-142.18;100.00;31564.69;5140755;27;20471;-73
2021/12/21 07:22:53;;;;;;;31.27;13.82;;;;;;;-142.18;100.00;31530.50;5152364;27;20055;-74
2021/12/21 07:25:25;;;;;;;26.83;13.20;;;;;;;-142.18;100.00;30995.88;5153098;27;20812;-73
2021/12/21 07:30:47;;;;;;;30.20;16.13;;;;;;;-142.18;100.00;31635.03;5140325;27;20420;-73
2021/12/21 07:33:16;;;;;;;26.15;13.63;;;;;;;-142.18;100.00;31856.16;5154443;27;20051;-73
2021/12/21 07:35:43;;;;;;;28.60;13.93;;;;;;;-142.18;100.00;31478.25;5156150;27;20996;-73
2021/12/21 07:38:11;;;;;;;27.95;12.68;;;;;;;-142.18;100.00;31393.84;5148130;27;20139;-72
2021/12/21 07:40:46;;;;;;;31.48;14.23;;;;;;;-142.18;100.00;31357.66;5155644;27;20077;-72
2021/12/21 07:43:14;;;;;;;23.20;12.27;;;;;;;-142.18;100.00;31986.81;5144913;27;20051;-73
2021/12/21 07:45:41;;;;;;;24.98;12.60;;;;;;;-142.18;100.00;32672.34;5144471;27;20055;-73
2021/12/21 07:48:10;;;;;;;25.42;12.50;;;;;;;-142.18;100.00;32435.13;5136675;27;20130;-73
2021/12/21 07:50:44;;;;;;;22.90;11.88;;;;;;;-142.18;100.00;32033.03;5136634;27;20125;-72
2021/12/21 07:53:25;;;;;;;25.85;12.90;;;;;;;-142.18;100.00;32431.09;5136730;27;20035;-72
2021/12/21 07:55:56;;;;;;;22.23;11.00;;;;;;;-142.18;100.00;33311.78;5156100;27;20089;-72
2021/12/21 07:58:29;;;;;;;22.45;11.80;;;;;;;-142.18;100.00;34172.53;5130250;27;20068;-74
2021/12/21 08:01:00;;;;;;;22.52;11.73;;;;;;;-142.18;100.00;33786.38;5071109;28;20057;-72
2021/12/21 08:03:32;;;;;;;25.13;12.85;;;;;;;-142.18;100.00;34442.06;5071553;27;20053;-72
2021/12/21 08:06:00;;;;;;;25.20;12.23;;;;;;;-142.18;100.00;34878.59;5069230;28;20121;-72
2021/12/21 08:08:29;;;;;;;24.45;12.73;;;;;;;-142.18;100.00;35512.31;5139668;27;20056;-73
2021/12/21 08:13:39;;;;;;;25.55;12.55;;;;;;;-142.18;100.00;36009.31;5050467;28;20057;-74
2021/12/21 08:16:07;;;;;;;28.00;11.48;;;;;;;-142.18;100.00;35600.84;5061390;28;20144;-74
2021/12/21 08:18:39;;;;;;;23.08;11.32;;;;;;;-142.18;100.00;35343.31;5069634;28;20057;-74
2021/12/21 08:21:07;;;;;;;23.07;11.53;;;;;;;-142.18;100.00;34916.81;5069035;27;20064;-74
2021/12/21 08:23:34;;;;;;;25.88;11.00;;;;;;;-142.18;100.00;34866.50;5067414;27;20306;-74
2021/12/21 08:26:04;;;;;;;20.42;10.38;;;;;;;-142.18;100.00;34494.38;5068913;28;20079;-74
2021/12/21 08:28:32;;;;;;;24.23;11.98;;;;;;;-142.18;100.00;34148.41;5128030;27;20088;-74
2021/12/21 08:30:59;;;;;;;24.45;11.50;;;;;;;-142.18;100.00;35186.38;5048871;28;20061;-74
2021/12/21 08:33:27;;;;;;;32.85;12.40;;;;;;;-142.18;100.00;35242.72;5115919;27;20054;-74
2021/12/21 08:35:54;;;;;;;30.73;12.80;;;;;;;-142.18;100.00;35518.34;5048872;28;20058;-74
2021/12/21 08:38:21;;;;;;;25.02;11.50;;;;;;;-142.18;100.00;35878.53;5117282;27;20053;-74
2021/12/21 08:40:50;;;;;;;34.17;12.52;;;;;;;-142.18;100.00;36232.69;5061374;28;20151;-73
2021/12/21 08:43:24;;;;;;;40.60;14.60;;;;;;;-142.18;100.00;36172.31;5054545;28;20080;-74
2021/12/21 08:45:52;;;;;;;43.30;14.27;;;;;;;-142.18;100.00;36138.13;5148643;27;20097;-74
2021/12/21 08:48:21;;;;;;;35.65;12.52;;;;;;;-142.18;100.00;36031.47;5089139;28;20135;-74
2021/12/21 08:50:53;;;;;;;32.53;13.13;;;;;;;-142.18;100.00;35818.16;5088773;28;20060;-73
2021/12/21 08:53:24;;;;;;;40.92;13.65;;;;;;;-142.18;100.00;35995.25;5069564;28;20147;-74
2021/12/21 08:55:52;;;;;;;33.78;13.93;;;;;;;-142.18;100.00;35576.72;5138140;27;20122;-73
2021/12/21 08:58:22;;;;;;;39.58;15.20;;;;;;;-142.18;100.00;35299.06;5051641;27;20053;-73
2021/12/21 09:00:50;;;;;;;41.95;18.52;;;;;;;-142.18;100.00;35371.47;5049176;28;20948;-74
2021/12/21 09:03:20;;;;;;;41.85;14.93;;;;;;;-142.18;100.00;35456.00;5049487;28;20050;-73
2021/12/21 09:05:47;;;;;;;49.03;17.63;;;;;;;-142.18;100.00;35240.72;5117877;27;20098;-73
2021/12/21 09:08:14;;;;;;;40.25;15.70;;;;;;;-142.18;100.00;35399.66;5118833;27;20451;-72
2021/12/21 09:10:42;;;;;;;43.70;17.23;;;;;;;-142.18;100.00;35502.25;5124727;27;20419;-72
2021/12/21 09:13:11;;;;;;;41.85;17.77;;;;;;;-142.18;100.00;35435.88;5069254;28;20045;-72
2021/12/21 09:15:43;;;;;;;42.38;17.30;;;;;;;-142.18;100.00;34957.03;5068700;27;20447;-73
2021/12/21 09:18:11;;;;;;;56.30;20.38;;;;;;;-142.18;100.00;34520.50;5068400;27;20528;-72
2021/12/21 09:20:38;;;;;;;50.85;19.33;;;;;;;-142.18;100.00;33999.56;5067115;28;20160;-72
2021/12/21 09:23:06;;;;;;;73.85;28.23;;;;;;;-142.18;100.00;34090.06;5068232;28;20517;-72
2021/12/21 09:25:36;;;;;;;57.05;21.92;;;;;;;-142.18;100.00;34265.06;5051753;27;20459;-72
2021/12/21 09:28:05;;;;;;;56.35;22.92;;;;;;;-142.18;100.00;34566.78;5053032;28;20178;-72
2021/12/21 09:30:33;;;;;;;52.72;21.15;;;;;;;-142.18;100.00;34635.19;5067230;27;20072;-72
2021/12/21 09:33:02;;;;;;;52.20;20.85;;;;;;;-142.18;100.00;34522.53;5135102;27;20148;-73
2021/12/21 09:35:30;;;;;;;78.65;26.00;;;;;;;-142.18;100.00;34554.72;5137609;27;20037;-73
2021/12/21 09:37:58;;;;;;;74.53;23.83;;;;;;;-142.18;100.00;34609.03;5062606;28;20108;-73
2021/12/21 09:40:29;;;;;;;69.65;24.38;;;;;;;-142.18;100.00;33726.03;5155326;27;20052;-73
2021/12/21 09:42:58;;;;;;;64.90;26.55;;;;;;;-142.18;100.00;32961.88;5094464;27;20864;-73
2021/12/21 09:45:35;;;;;;;91.85;27.10;;;;;;;-142.18;100.00;32988.03;5048609;28;20073;-72
2021/12/21 09:48:04;;;;;;;87.88;25.10;;;;;;;-142.18;100.00;33211.22;5133695;27;20113;-74
2021/12/21 09:50:33;;;;;;;69.47;24.00;;;;;;;-142.18;100.00;33026.22;5138163;27;20082;-73
2021/12/21 09:53:02;;;;;;;65.93;24.45;;;;;;;-142.18;100.00;33146.88;5058782;28;20125;-74
2021/12/21 09:55:34;;;;;;;77.38;27.30;;;;;;;-142.18;100.00;33255.47;5051797;28;20053;-74
2021/12/21 09:58:05;;;;;;;69.18;25.92;;;;;;;-142.18;100.00;33199.16;5067988;27;20153;-74
2021/12/21 10:00:34;;;;;;;68.28;23.00;;;;;;;-142.18;100.00;33279.59;5070350;28;20366;-74
2021/12/21 10:03:04;;;;;;;69.55;23.30;;;;;;;-142.18;100.00;32965.91;5074478;27;20795;-74
2021/12/21 10:05:41;;;;;;;90.63;24.60;;;;;;;-142.18;100.00;32684.41;5138964;27;20097;-73
2021/12/21 10:08:15;;;;;;;59.40;25.42;;;;;;;-142.18;100.00;32612.03;5069065;28;20151;-73
2021/12/21 10:11:03;;;;;;;65.03;24.10;;;;;;;-142.18;100.00;32855.31;5068941;28;20072;-74
2021/12/21 10:13:34;;;;;;;64.20;23.80;;;;;;;-142.18;100.00;33090.56;5071850;27;20057;-74
2021/12/21 10:16:05;;;;;;;73.60;24.98;;;;;;;-142.18;100.00;33164.97;5135799;27;20060;-74
2021/12/21 10:18:41;;;;;;;72.80;24.13;;;;;;;-142.18;100.00;33528.97;5058404;27;20063;-73
2021/12/21 10:21:14;;;;;;;67.50;25.95;;;;;;;-142.18;100.00;33205.19;5061558;28;20498;-74
2021/12/21 10:23:51;;;;;;;68.93;25.48;;;;;;;-142.18;100.00;33068.47;5069188;28;20053;-74
2021/12/21 10:26:26;;;;;;;44.97;22.38;;;;;;;-142.18;100.00;33251.44;5138875;27;20143;-73
2021/12/21 10:29:00;;;;;;;50.10;23.60;;;;;;;-142.18;100.00;32189.84;5071015;28;20171;-73
2021/12/21 10:31:39;;;;;;;47.92;22.52;;;;;;;-142.18;100.00;32788.97;5071343;28;20146;-73
2021/12/21 10:34:18;;;;;;;52.08;22.10;;;;;;;-142.18;100.00;32967.91;5072996;28;20056;-73
2021/12/21 10:36:49;;;;;;;42.17;20.50;;;;;;;-142.18;100.00;34116.22;5058090;28;20054;-72
2021/12/21 10:39:36;;;;;;;59.30;24.83;;;;;;;-142.18;100.00;33613.41;5058826;28;20435;-72
2021/12/21 10:42:05;;;;;;;54.97;24.17;;;;;;;-142.18;100.00;33468.63;5071512;27;20068;-72
2021/12/21 10:44:33;;;;;;;59.20;26.90;;;;;;;-142.18;100.00;33305.75;5071195;28;20145;-72
2021/12/21 10:47:01;;;;;;;78.70;21.60;;;;;;;-142.18;100.00;33886.94;5132848;27;20137;-72
2021/12/21 10:49:40;;;;;;;64.13;23.05;;;;;;;-142.18;100.00;33541.03;5133348;27;20382;-72
2021/12/21 10:52:12;;;;;;;55.05;23.60;;;;;;;-142.18;100.00;33098.63;5050521;28;20057;-72
2021/12/21 10:54:43;;;;;;;76.85;28.35;;;;;;;-142.18;100.00;33263.50;5050140;28;20148;-72
2021/12/21 10:57:20;;;;;;;69.15;24.45;;;;;;;-142.18;100.00;32786.97;5051897;28;20053;-72
2021/12/21 10:59:53;;;;;;;58.65;23.48;;;;;;;-142.18;100.00;33086.56;5061364;28;20535;-72
2021/12/21 11:02:29;;;;;;;52.80;21.85;;;;;;;-142.18;100.00;33653.66;5071909;27;20056;-72
2021/12/21 11:05:04;;;;;;;54.60;23.40;;;;;;;-142.18;100.00;33420.38;5117385;27;20061;-73
2021/12/21 11:08:18;;;;;;;87.70;25.05;;;;;;;-142.18;100.00;33581.25;5051351;28;20071;-72
2021/12/21 11:10:32;;;;;;;52.30;22.67;;;;;;;-142.18;100.00;33321.81;5054991;27;20498;-74
2021/12/21 11:13:14;;;;;;;71.47;27.75;;;;;;;-142.18;100.00;32971.94;5061861;27;20060;-72
2021/12/21 11:15:52;;;;;;;49.15;22.65;;;;;;;-142.18;100.00;33277.59;5149797;27;20108;-71
2021/12/21 11:18:43;;;;;;;61.25;23.83;;;;;;;-142.18;100.00;32921.69;5146897;27;20060;-72
2021/12/21 11:21:10;;;;;;;78.85;24.13;;;;;;;-142.18;100.00;33195.13;5064011;28;20049;-71
2021/12/21 11:23:38;;;;;;;51.97;23.48;;;;;;;-142.18;100.00;33392.22;5127981;27;20144;-72
2021/12/21 11:26:07;;;;;;;56.65;22.42;;;;;;;-142.18;100.00;33452.53;5061516;28;20063;-72
2021/12/21 11:28:36;;;;;;;71.57;22.70;;;;;;;-142.18;100.00;33858.78;5057085;28;20065;-72
2021/12/21 11:31:07;;;;;;;84.10;25.63;;;;;;;-142.18;100.00;33452.53;5050966;28;20053;-72
2021/12/21 11:33:42;;;;;;;64.00;25.20;;;;;;;-142.18;100.00;33094.59;5051475;28;20061;-72
2021/12/21 11:39:07;;;;;;;108.95;26.13;;;;;;;-142.18;100.00;33396.22;5050785;28;20056;-72
2021/12/21 11:41:57;;;;;;;67.13;26.23;;;;;;;-142.18;100.00;33142.84;5052950;27;20069;-73
2021/12/21 11:45:00;;;;;;;61.05;25.95;;;;;;;-142.18;100.00;32929.72;5067336;27;20049;-72
2021/12/21 11:47:44;;;;;;;67.60;26.05;;;;;;;-142.18;100.00;33010.16;5068696;27;20110;-72
2021/12/21 11:50:11;;;;;;;66.28;23.55;;;;;;;-142.18;100.00;33581.25;5069749;28;20057;-72
2021/12/21 11:52:44;;;;;;;59.10;24.48;;;;;;;-142.18;100.00;33094.59;5070184;27;20160;-72
2021/12/21 11:55:15;;;;;;;79.10;29.17;;;;;;;-142.18;100.00;33034.28;5135981;27;20056;-72
2021/12/21 11:57:47;;;;;;;54.10;25.58;;;;;;;-142.18;100.00;32795.00;5072725;28;20520;-72
2021/12/21 12:00:14;;;;;;;79.07;24.95;;;;;;;-142.18;100.00;33386.19;5139880;27;20064;-72
2021/12/21 12:02:44;;;;;;;73.88;27.30;;;;;;;-142.18;100.00;32624.09;5069514;28;20790;-71
2021/12/21 12:05:25;;;;;;;70.30;23.48;;;;;;;-142.18;100.00;32523.56;5139984;27;20114;-72
2021/12/21 12:08:13;;;;;;;57.22;25.00;;;;;;;-142.18;100.00;32527.59;5071094;28;20553;-71
2021/12/21 12:10:55;;;;;;;55.85;23.75;;;;;;;-142.18;100.00;32495.44;5137731;27;20057;-72
2021/12/21 12:13:40;;;;;;;59.42;25.70;;;;;;;-142.18;100.00;32455.22;5067692;28;20074;-72
2021/12/21 12:16:12;;;;;;;61.70;25.77;;;;;;;-142.18;100.00;33006.13;5131662;27;20095;-72
2021/12/21 12:18:48;;;;;;;;;;;;;;;-142.18;100.00;32181.81;5051330;28;20057;-72
2021/12/21 12:21:22;;;;;;;56.78;25.15;;;;;;;-142.18;100.00;32921.69;5054814;27;20632;-73
2021/12/21 12:24:00;;;;;;;66.68;28.73;;;;;;;-142.18;100.00;33118.72;5052783;28;20365;-72